Time;durP1;ratioP1;P1;durP2;ratioP2;P2;SDS_P1;SDS_P2;PMS_P1;PMS_P2;Temp;Humidity;BMP_temperature;BMP_pressure;BME280_temperature;BME280_humidity;BME280_pressure;Samples;Min_cycle;Max_cycle;Signal;HPM_P1;HPM_P2
2021/12/08 15:59:52;;;;;;;1.85;1.00;;;22.00;50.80;;;;;;5085136;27;20409;-69
2021/12/08 16:02:27;;;;;;;5.57;1.08;;;23.20;38.10;;;;;;5072733;28;20031;-68
2021/12/08 16:04:56;;;;;;;6.70;1.10;;;23.20;37.80;;;;;;5045263;28;20047;-67
2021/12/08 16:07:28;;;;;;;4.75;1.30;;;23.20;37.70;;;;;;5057052;28;20037;-68
2021/12/08 16:09:54;;;;;;;2.27;0.80;;;23.10;37.30;;;;;;5063204;28;20103;-68
2021/12/08 16:12:19;;;;;;;4.82;1.05;;;23.10;37.50;;;;;;5050079;28;20027;-67
2021/12/08 16:14:58;;;;;;;2.45;0.90;;;23.10;37.20;;;;;;5060443;28;20036;-68
2021/12/08 16:17:27;;;;;;;4.72;1.10;;;23.10;36.90;;;;;;5054927;28;20029;-68
2021/12/08 16:20:15;;;;;;;2.97;0.90;;;23.20;36.90;;;;;;5062906;28;20086;-67
2021/12/08 16:22:41;;;;;;;5.60;1.00;;;23.20;36.00;;;;;;5039567;28;20048;-67
2021/12/08 16:25:09;;;;;;;4.70;1.33;;;23.10;36.50;;;;;;5058793;28;20029;-67
2021/12/08 16:27:35;;;;;;;3.10;0.82;;;23.20;36.30;;;;;;5061112;28;20024;-67
2021/12/08 16:30:03;;;;;;;3.03;1.05;;;23.20;36.10;;;;;;5052384;28;20535;-67
2021/12/08 16:32:29;;;;;;;3.97;0.82;;;23.20;36.00;;;;;;5062734;28;20014;-67
2021/12/08 16:34:57;;;;;;;1.63;1.10;;;23.20;36.70;;;;;;5046861;28;20520;-67
2021/12/08 16:37:25;;;;;;;3.50;1.02;;;23.20;35.60;;;;;;5047106;28;20026;-67
2021/12/08 16:45:03;;;;;;;2.10;0.93;;;23.10;35.10;;;;;;5059773;28;20040;-67
2021/12/08 16:47:29;;;;;;;1.58;0.70;;;23.10;35.10;;;;;;5049081;28;20474;-67
2021/12/08 16:49:55;;;;;;;2.40;1.10;;;23.00;35.10;;;;;;5048939;28;20533;-68
2021/12/08 16:52:22;;;;;;;2.63;1.20;;;23.00;35.00;;;;;;5048779;28;20155;-68
2021/12/08 16:54:50;;;;;;;1.13;0.70;;;22.90;35.10;;;;;;5047715;28;20021;-68
2021/12/08 16:57:16;;;;;;;1.58;0.75;;;22.90;35.20;;;;;;5048792;28;20096;-68
2021/12/08 16:59:42;;;;;;;2.05;1.02;;;22.90;35.30;;;;;;5048427;28;20195;-68
2021/12/08 17:02:07;;;;;;;2.83;1.13;;;22.90;35.30;;;;;;5048709;28;20058;-68
2021/12/08 17:04:33;;;;;;;3.20;1.10;;;22.90;35.30;;;;;;5048300;28;20066;-68
2021/12/08 17:06:58;;;;;;;2.00;0.90;;;22.80;35.40;;;;;;5048600;28;20044;-68
2021/12/08 17:09:24;;;;;;;1.75;1.10;;;22.80;35.40;;;;;;5045084;28;20018;-68
2021/12/08 17:11:49;;;;;;;2.63;1.17;;;22.80;35.50;;;;;;5035195;28;20025;-68
2021/12/08 17:14:15;;;;;;;5.95;1.10;;;22.70;35.50;;;;;;5035090;28;20436;-68
2021/12/08 17:16:41;;;;;;;1.33;0.82;;;22.70;35.60;;;;;;5033870;28;20040;-67
2021/12/08 17:19:10;;;;;;;1.75;1.10;;;22.60;35.80;;;;;;5033582;28;20482;-67
2021/12/08 17:21:41;;;;;;;1.60;0.70;;;22.60;35.80;;;;;;5035023;28;20081;-67
2021/12/08 17:24:07;;;;;;;1.73;0.80;;;22.50;35.90;;;;;;5034925;28;20025;-67
2021/12/08 17:26:33;;;;;;;2.20;0.80;;;22.40;35.90;;;;;;5035197;28;20370;-67
2021/12/08 17:28:59;;;;;;;2.30;1.00;;;22.40;36.00;;;;;;5034652;28;20053;-67
2021/12/08 17:31:25;;;;;;;1.55;0.90;;;22.30;36.00;;;;;;5033405;28;20052;-67
2021/12/08 17:33:51;;;;;;;1.73;0.82;;;22.30;36.10;;;;;;5034768;28;20029;-67
2021/12/08 17:36:16;;;;;;;2.38;1.10;;;22.30;36.20;;;;;;5033236;28;20025;-67
2021/12/08 17:38:42;;;;;;;2.40;0.70;;;22.30;36.30;;;;;;5033106;28;20025;-67
2021/12/08 17:41:10;;;;;;;2.40;0.80;;;22.30;36.40;;;;;;5034664;28;20033;-67
2021/12/08 17:43:37;;;;;;;1.42;0.82;;;22.20;36.40;;;;;;5034452;28;20108;-67
2021/12/08 17:46:04;;;;;;;2.53;0.73;;;22.30;36.50;;;;;;5034537;28;20755;-67
2021/12/08 17:48:31;;;;;;;1.75;0.98;;;22.30;36.40;;;;;;5034358;28;20100;-67
2021/12/08 17:50:59;;;;;;;1.77;0.75;;;22.40;36.40;;;;;;5033182;28;20029;-67
2021/12/08 17:53:25;;;;;;;2.35;0.80;;;22.40;36.30;;;;;;5034221;28;20033;-67
2021/12/08 17:55:51;;;;;;;1.35;0.60;;;22.50;36.30;;;;;;5034411;28;20036;-67
2021/12/08 17:58:18;;;;;;;1.73;0.90;;;22.60;36.20;;;;;;5033906;28;20046;-68
2021/12/08 18:00:48;;;;;;;1.80;0.70;;;22.60;36.10;;;;;;5034195;28;20461;-67
2021/12/08 18:03:14;;;;;;;2.40;0.90;;;22.70;36.20;;;;;;5027430;28;20101;-67
2021/12/08 18:05:39;;;;;;;1.27;0.68;;;22.70;36.10;;;;;;5014373;28;20123;-67
2021/12/08 18:08:05;;;;;;;1.67;0.75;;;22.80;36.10;;;;;;5014282;28;20022;-67
2021/12/08 18:10:35;;;;;;;1.35;0.85;;;22.80;36.00;;;;;;5014293;28;20030;-67
2021/12/08 18:13:01;;;;;;;1.15;0.70;;;22.80;35.80;;;;;;5014171;28;20105;-68
2021/12/08 18:15:27;;;;;;;2.28;0.90;;;22.90;35.90;;;;;;5014227;28;20028;-68
2021/12/08 18:17:53;;;;;;;1.60;0.85;;;22.90;35.80;;;;;;5021679;28;20470;-67
2021/12/08 18:20:22;;;;;;;1.88;0.90;;;22.90;35.80;;;;;;5032524;28;20026;-67
2021/12/08 18:22:48;;;;;;;1.58;0.80;;;22.90;35.60;;;;;;5031568;28;20482;-67
2021/12/08 18:25:15;;;;;;;2.92;0.90;;;23.00;35.70;;;;;;5032529;28;20051;-67
2021/12/08 18:27:41;;;;;;;1.02;0.60;;;23.00;35.50;;;;;;5032476;28;20025;-67
2021/12/08 18:30:08;;;;;;;1.73;0.75;;;23.00;35.60;;;;;;5032327;28;20032;-67
2021/12/08 18:32:34;;;;;;;1.00;0.60;;;23.10;35.50;;;;;;5033641;28;20029;-67
2021/12/08 18:35:14;;;;;;;1.55;0.80;;;23.10;35.50;;;;;;5033401;28;20018;-67
2021/12/08 18:37:40;;;;;;;2.45;0.90;;;23.10;35.40;;;;;;5032435;28;20064;-67
2021/12/08 18:40:07;;;;;;;2.25;0.80;;;23.00;35.30;;;;;;5033301;28;20117;-67
2021/12/08 18:42:32;;;;;;;1.75;0.70;;;23.00;35.30;;;;;;5033386;28;20095;-67
2021/12/08 18:44:58;;;;;;;1.40;0.77;;;23.00;35.20;;;;;;5033302;28;20025;-67
2021/12/08 18:47:25;;;;;;;1.75;0.95;;;23.00;35.20;;;;;;5033298;28;20017;-67
2021/12/08 18:49:51;;;;;;;1.13;0.68;;;23.00;35.30;;;;;;5033106;28;20025;-67
2021/12/08 18:52:17;;;;;;;2.58;0.80;;;22.90;35.30;;;;;;5033278;28;20104;-67
2021/12/08 18:54:42;;;;;;;2.08;0.80;;;22.90;35.30;;;;;;5033244;28;20033;-67
2021/12/08 18:57:08;;;;;;;1.85;0.60;;;22.90;35.30;;;;;;5033256;28;20030;-67
2021/12/08 18:59:34;;;;;;;1.50;0.70;;;22.80;35.40;;;;;;5031445;28;20126;-68
2021/12/08 19:02:00;;;;;;;1.58;1.00;;;22.80;35.40;;;;;;5033159;28;20071;-67
2021/12/08 19:04:27;;;;;;;2.00;0.80;;;22.70;35.40;;;;;;5016470;28;20082;-67
2021/12/08 19:06:56;;;;;;;1.23;0.80;;;22.70;35.50;;;;;;5013155;28;20026;-67
2021/12/08 19:09:22;;;;;;;1.83;0.90;;;22.60;35.60;;;;;;5013046;28;20022;-67
2021/12/08 19:11:48;;;;;;;1.05;0.73;;;22.60;35.70;;;;;;5013164;28;20076;-67
2021/12/08 19:14:14;;;;;;;2.00;0.57;;;22.50;35.70;;;;;;5011747;28;20445;-67
2021/12/08 19:16:40;;;;;;;1.33;0.70;;;22.40;35.80;;;;;;5013098;28;20052;-67
2021/12/08 19:19:06;;;;;;;1.95;0.70;;;22.40;35.90;;;;;;5029103;28;20033;-68
2021/12/08 19:21:32;;;;;;;2.17;1.10;;;22.30;36.00;;;;;;5032797;28;20092;-68
2021/12/08 19:23:58;;;;;;;1.67;0.80;;;22.30;36.10;;;;;;5032679;28;20037;-68
2021/12/08 19:26:25;;;;;;;1.80;1.02;;;22.20;36.20;;;;;;5032764;28;20022;-68
2021/12/08 19:28:52;;;;;;;2.05;0.82;;;22.20;36.20;;;;;;5031468;28;20120;-68
2021/12/08 19:31:18;;;;;;;1.27;0.68;;;22.10;36.30;;;;;;5031404;28;20017;-68
2021/12/08 19:33:45;;;;;;;1.73;0.73;;;22.10;36.30;;;;;;5032553;28;20112;-68
2021/12/08 19:36:11;;;;;;;0.95;0.65;;;22.00;36.40;;;;;;5032444;28;20438;-68
2021/12/08 19:38:39;;;;;;;1.17;0.73;;;22.00;36.50;;;;;;5031326;28;20052;-68
2021/12/08 19:41:07;;;;;;;2.25;0.75;;;21.90;36.50;;;;;;5032542;28;20026;-68
2021/12/08 19:43:34;;;;;;;1.10;0.60;;;21.90;36.60;;;;;;5032509;28;20025;-68
2021/12/08 19:46:05;;;;;;;1.40;0.70;;;21.80;36.70;;;;;;5032502;28;20024;-68
2021/12/08 19:48:31;;;;;;;0.95;0.70;;;21.80;36.80;;;;;;5032496;28;20498;-68
2021/12/08 19:50:57;;;;;;;1.30;0.82;;;21.70;36.70;;;;;;5031324;28;20032;-68
2021/12/08 19:53:23;;;;;;;1.67;0.60;;;21.70;36.80;;;;;;5032453;28;20029;-69
2021/12/08 19:55:50;;;;;;;1.88;0.93;;;21.60;36.90;;;;;;5032289;28;20687;-69
2021/12/08 19:58:17;;;;;;;1.00;0.57;;;21.60;37.00;;;;;;5030943;28;20096;-69
2021/12/08 20:00:45;;;;;;;1.17;0.80;;;21.60;37.00;;;;;;5032320;28;20033;-68
2021/12/08 20:03:11;;;;;;;2.00;0.80;;;21.50;37.00;;;;;;5025070;28;20014;-68
2021/12/08 20:05:38;;;;;;;1.23;0.80;;;21.50;37.10;;;;;;5011679;28;20033;-68
2021/12/08 20:08:06;;;;;;;1.38;0.60;;;21.40;37.10;;;;;;5011439;28;20441;-68
2021/12/08 20:10:33;;;;;;;2.25;0.80;;;21.40;37.20;;;;;;5012541;28;20508;-68
2021/12/08 20:12:59;;;;;;;1.05;0.70;;;21.40;37.20;;;;;;5012533;28;20037;-68
2021/12/08 20:15:27;;;;;;;1.30;0.73;;;21.30;37.30;;;;;;5011147;28;20026;-68
2021/12/08 20:17:53;;;;;;;1.38;0.80;;;21.30;37.30;;;;;;5002312;28;20029;-68
2021/12/08 20:20:19;;;;;;;1.10;0.70;;;21.30;37.40;;;;;;5032142;28;20080;-68
2021/12/08 20:22:45;;;;;;;0.95;0.68;;;21.20;37.40;;;;;;5032119;28;20079;-68
2021/12/08 20:25:19;;;;;;;1.05;0.65;;;21.20;37.40;;;;;;5032038;28;20029;-68
2021/12/08 20:27:46;;;;;;;1.20;0.70;;;21.20;38.40;;;;;;5032202;28;20033;-68
2021/12/08 20:30:13;;;;;;;1.58;0.80;;;21.10;37.50;;;;;;5032053;28;20063;-68
2021/12/08 20:32:40;;;;;;;2.03;0.63;;;21.10;37.50;;;;;;5032114;28;20064;-68
2021/12/08 20:35:07;;;;;;;1.83;0.90;;;21.10;37.60;;;;;;5031993;28;20026;-68
2021/12/08 20:37:33;;;;;;;1.00;0.60;;;21.00;37.60;;;;;;5031903;28;20029;-68
2021/12/08 20:39:59;;;;;;;1.92;0.70;;;21.00;37.70;;;;;;5031883;28;20032;-68
2021/12/08 20:42:25;;;;;;;0.82;0.50;;;21.00;37.90;;;;;;5030759;28;20023;-68
2021/12/08 20:44:51;;;;;;;1.83;0.90;;;20.90;37.90;;;;;;5032683;28;20053;-68
2021/12/08 20:47:17;;;;;;;2.30;1.10;;;20.90;37.90;;;;;;5035704;28;20093;-68
2021/12/08 20:49:44;;;;;;;1.60;0.80;;;20.90;37.90;;;;;;5035691;28;20095;-68
2021/12/08 20:52:11;;;;;;;2.45;0.70;;;20.90;37.90;;;;;;5035657;28;20546;-68
2021/12/08 20:54:37;;;;;;;2.20;0.95;;;20.90;37.90;;;;;;5035569;28;20021;-68
2021/12/08 20:57:06;;;;;;;1.83;0.80;;;20.80;37.90;;;;;;5035456;28;20033;-68
2021/12/08 20:59:38;;;;;;;2.00;1.17;;;20.80;37.90;;;;;;5035507;28;20584;-68
2021/12/08 21:02:08;;;;;;;2.22;0.90;;;20.80;38.00;;;;;;5034828;28;20013;-68
2021/12/08 21:04:34;;;;;;;1.80;1.00;;;20.80;38.00;;;;;;5035190;28;20025;-68
2021/12/08 21:07:00;;;;;;;1.63;1.00;;;20.80;38.00;;;;;;5035312;28;20022;-68
2021/12/08 21:09:27;;;;;;;1.10;0.73;;;20.80;37.90;;;;;;5035271;28;20030;-68
2021/12/08 21:11:55;;;;;;;2.03;0.88;;;20.80;38.00;;;;;;5035099;28;20052;-68
2021/12/08 21:14:22;;;;;;;1.30;0.80;;;20.80;38.00;;;;;;5035189;28;20025;-68
2021/12/08 21:16:49;;;;;;;3.10;0.90;;;20.80;37.90;;;;;;5035114;28;20090;-68
2021/12/08 21:19:16;;;;;;;2.05;1.00;;;20.80;37.90;;;;;;5033709;28;20032;-68
2021/12/08 21:21:42;;;;;;;2.05;1.10;;;20.80;37.90;;;;;;5034985;28;20021;-68
2021/12/08 21:24:08;;;;;;;1.67;0.88;;;20.80;37.90;;;;;;5035011;28;20021;-68
2021/12/08 21:26:34;;;;;;;2.10;1.23;;;20.80;37.90;;;;;;5034868;28;20025;-68
2021/12/08 21:29:02;;;;;;;1.33;0.88;;;20.80;37.90;;;;;;5033534;28;20018;-68
2021/12/08 21:31:28;;;;;;;1.55;1.13;;;20.80;37.90;;;;;;5034844;28;20032;-68
2021/12/08 21:33:55;;;;;;;2.70;1.30;;;20.80;37.90;;;;;;5033538;28;20029;-68
2021/12/08 21:36:27;;;;;;;2.20;1.25;;;20.80;37.80;;;;;;5030386;28;20057;-68
2021/12/08 21:38:57;;;;;;;1.23;0.85;;;20.80;37.80;;;;;;5015119;28;20080;-68
2021/12/08 21:41:22;;;;;;;2.63;1.30;;;20.80;37.90;;;;;;5014899;28;20068;-68
2021/12/08 21:43:51;;;;;;;1.80;1.10;;;20.70;37.80;;;;;;5014807;28;20030;-68
2021/12/08 21:46:18;;;;;;;2.83;1.15;;;20.70;37.80;;;;;;5014755;28;20390;-68
2021/12/08 21:48:45;;;;;;;1.48;1.10;;;20.70;37.70;;;;;;5014690;28;20022;-68
2021/12/08 21:51:12;;;;;;;1.83;0.95;;;20.70;37.70;;;;;;5014691;28;20030;-68
2021/12/08 21:53:40;;;;;;;2.95;1.13;;;20.70;37.70;;;;;;5014782;28;20026;-68
2021/12/08 21:56:07;;;;;;;2.05;1.23;;;20.70;37.80;;;;;;5014456;28;20030;-68
2021/12/08 21:58:33;;;;;;;2.47;1.20;;;20.70;37.70;;;;;;5014318;28;20510;-68
2021/12/08 22:00:59;;;;;;;2.15;1.20;;;20.70;37.70;;;;;;5014493;28;20029;-68
2021/12/08 22:03:25;;;;;;;2.20;1.10;;;20.70;37.70;;;;;;5014402;28;20382;-68
2021/12/08 22:05:52;;;;;;;2.35;1.17;;;20.70;37.70;;;;;;5014427;28;20018;-68
2021/12/08 22:08:19;;;;;;;2.65;1.20;;;20.60;37.70;;;;;;5046289;28;20495;-68
2021/12/08 22:10:46;;;;;;;2.00;1.30;;;20.60;37.80;;;;;;5046143;28;20029;-68
2021/12/08 22:13:13;;;;;;;1.38;1.00;;;20.60;37.70;;;;;;5014216;28;20041;-68
2021/12/08 22:15:47;;;;;;;1.70;1.00;;;20.60;37.80;;;;;;5014305;28;20025;-68
2021/12/08 22:18:16;;;;;;;2.78;1.27;;;20.60;37.70;;;;;;5024431;28;20029;-68
2021/12/08 22:20:43;;;;;;;1.98;1.10;;;20.60;37.80;;;;;;5032704;28;20108;-68
2021/12/08 22:23:09;;;;;;;2.83;1.10;;;20.60;37.90;;;;;;5033894;28;20033;-68
2021/12/08 22:25:35;;;;;;;1.85;1.30;;;20.60;37.80;;;;;;5033850;28;20018;-68
2021/12/08 22:28:01;;;;;;;1.40;1.00;;;20.60;37.90;;;;;;5032536;28;20029;-68
2021/12/08 22:30:27;;;;;;;1.83;0.88;;;20.60;37.90;;;;;;5032576;28;20478;-68
2021/12/08 22:32:52;;;;;;;1.55;1.00;;;20.60;37.80;;;;;;5032415;28;20048;-68
2021/12/08 22:35:19;;;;;;;1.80;1.17;;;20.60;37.80;;;;;;5032404;28;20060;-68
2021/12/08 22:37:46;;;;;;;1.67;1.15;;;20.50;37.80;;;;;;5033389;28;20595;-68
2021/12/08 22:40:17;;;;;;;2.67;1.02;;;20.60;37.90;;;;;;5033608;28;20534;-68
2021/12/08 22:42:43;;;;;;;1.85;1.10;;;20.60;37.80;;;;;;5033498;28;20049;-68
2021/12/08 22:45:12;;;;;;;2.08;1.20;;;20.50;37.80;;;;;;5033512;28;20417;-68
2021/12/08 22:47:40;;;;;;;1.77;1.05;;;20.50;37.80;;;;;;5033340;28;20621;-68
2021/12/08 22:50:09;;;;;;;1.80;1.13;;;20.50;37.90;;;;;;5033352;28;20033;-68
2021/12/08 22:52:36;;;;;;;1.65;1.08;;;20.50;37.80;;;;;;5033376;28;20045;-68
2021/12/08 22:55:03;;;;;;;1.83;1.20;;;20.50;37.80;;;;;;5033274;28;20029;-68
2021/12/08 22:57:29;;;;;;;2.55;1.27;;;20.50;37.70;;;;;;5032948;28;20687;-68
2021/12/08 22:59:55;;;;;;;1.58;1.10;;;20.50;37.80;;;;;;5033167;28;20057;-68
2021/12/08 23:02:20;;;;;;;2.00;1.25;;;20.50;37.80;;;;;;5026435;28;20022;-68
2021/12/08 23:04:47;;;;;;;1.33;0.90;;;20.50;37.90;;;;;;5032266;28;20021;-68
2021/12/08 23:07:13;;;;;;;1.40;1.10;;;20.50;37.90;;;;;;5032646;28;20025;-68
2021/12/08 23:09:38;;;;;;;1.85;1.02;;;20.50;37.80;;;;;;5033083;28;20474;-68
2021/12/08 23:12:05;;;;;;;2.33;1.30;;;20.50;37.90;;;;;;5031716;28;20075;-68
2021/12/08 23:14:31;;;;;;;1.88;1.10;;;20.50;37.80;;;;;;5032870;28;20067;-68
2021/12/08 23:16:59;;;;;;;1.80;1.02;;;20.50;37.80;;;;;;5031616;28;20056;-68
2021/12/08 23:19:28;;;;;;;1.35;1.02;;;20.40;37.70;;;;;;5032802;28;20025;-68
2021/12/08 23:21:53;;;;;;;1.50;1.30;;;20.40;37.80;;;;;;5031907;28;20031;-68
2021/12/08 23:24:19;;;;;;;3.53;1.30;;;20.40;37.70;;;;;;5032773;28;20100;-68
2021/12/08 23:26:45;;;;;;;1.60;1.20;;;20.40;37.80;;;;;;5032841;28;20035;-68
2021/12/08 23:29:13;;;;;;;2.15;1.15;;;20.40;37.70;;;;;;5032659;28;20021;-68
2021/12/08 23:31:40;;;;;;;1.88;1.10;;;20.40;37.80;;;;;;5032683;28;20398;-68
2021/12/08 23:34:08;;;;;;;1.85;1.35;;;20.40;37.70;;;;;;5032699;28;20029;-68
2021/12/08 23:37:00;;;;;;;1.95;1.02;;;20.40;37.70;;;;;;5032551;28;20470;-68
2021/12/08 23:39:24;;;;;;;1.77;1.15;;;20.40;37.70;;;;;;5032310;28;20064;-68
2021/12/08 23:41:54;;;;;;;1.98;1.02;;;20.40;37.80;;;;;;5032602;28;20022;-68
2021/12/08 23:44:21;;;;;;;2.00;1.10;;;20.40;37.80;;;;;;5032413;28;20024;-68
2021/12/08 23:46:47;;;;;;;2.60;1.20;;;20.40;37.80;;;;;;5032623;28;20033;-68
2021/12/08 23:49:13;;;;;;;1.80;1.10;;;20.40;37.70;;;;;;5032399;28;20034;-68
2021/12/08 23:51:39;;;;;;;4.72;1.23;;;20.30;37.70;;;;;;5032554;28;20109;-68
2021/12/08 23:54:06;;;;;;;2.70;1.20;;;20.30;37.80;;;;;;5032279;28;20079;-68
2021/12/08 23:56:35;;;;;;;2.05;1.20;;;20.30;37.70;;;;;;5032530;28;20474;-68
2021/12/08 23:59:04;;;;;;;1.55;1.10;;;20.30;37.70;;;;;;5032002;28;20076;-68
